createdAt,value
2016-06-02T00:00:33.144Z,99.99
2016-06-02T00:01:33.132Z,99.99
2016-06-02T00:02:33.119Z,99.99
2016-06-02T00:03:33.090Z,99.99
2016-06-02T00:04:33.077Z,99.99
2016-06-02T00:05:33.064Z,99.99
2016-06-02T00:06:33.035Z,99.99
2016-06-02T00:07:33.023Z,99.99
2016-06-02T00:08:33.010Z,99.99
2016-06-02T00:09:32.998Z,99.99
2016-06-02T00:10:32.968Z,99.99
2016-06-02T00:11:32.955Z,99.99
2016-06-02T00:12:32.943Z,99.99
2016-06-02T00:13:32.929Z,99.99
2016-06-02T00:14:32.901Z,99.99
2016-06-02T00:15:32.888Z,99.99
2016-06-02T00:16:32.875Z,99.99
2016-06-02T00:17:32.847Z,99.99
2016-06-02T00:18:32.834Z,99.99
2016-06-02T00:19:32.820Z,99.99
2016-06-02T00:20:32.792Z,99.99
2016-06-02T00:21:32.780Z,99.99
2016-06-02T00:22:32.766Z,99.99
2016-06-02T00:23:32.738Z,99.99
2016-06-02T00:24:32.741Z,99.99
2016-06-02T00:25:32.711Z,99.99
2016-06-02T00:26:32.699Z,99.99
2016-06-02T00:27:32.671Z,99.99
2016-06-02T00:28:32.657Z,99.99
2016-06-02T00:29:32.645Z,99.99
2016-06-02T00:30:32.632Z,99.99
2016-06-02T00:31:32.602Z,99.99
2016-06-02T00:32:32.590Z,99.99
2016-06-02T00:33:32.577Z,99.99
2016-06-02T00:34:32.549Z,99.99
2016-06-02T00:35:32.535Z,99.99
2016-06-02T00:36:32.523Z,99.99
2016-06-02T00:37:32.494Z,99.99
2016-06-02T00:38:32.482Z,99.99
2016-06-02T00:39:32.468Z,99.99
2016-06-02T00:40:32.440Z,99.99
2016-06-02T00:41:32.426Z,99.99
2016-06-02T00:42:32.414Z,99.99
2016-06-02T00:43:32.401Z,99.99
2016-06-02T00:44:32.373Z,99.99
2016-06-02T00:45:32.359Z,99.99
2016-06-02T00:46:32.347Z,99.99
2016-06-02T00:47:32.334Z,99.99
2016-06-02T00:48:32.305Z,99.99
2016-06-02T00:49:32.292Z,99.99
2016-06-02T00:50:32.279Z,99.99
2016-06-02T00:51:32.251Z,99.99
2016-06-02T00:52:32.238Z,99.99
2016-06-02T00:53:32.225Z,99.99
2016-06-02T00:54:32.197Z,99.99
2016-06-02T00:55:32.183Z,99.99
2016-06-02T00:56:32.186Z,99.99
2016-06-02T00:57:32.157Z,99.99
2016-06-02T00:58:32.129Z,99.99
2016-06-02T00:59:32.116Z,99.99
2016-06-02T01:00:32.103Z,99.99
2016-06-02T01:01:32.074Z,99.99
2016-06-02T01:02:32.061Z,99.99
2016-06-02T01:03:32.049Z,99.99
2016-06-02T01:04:32.035Z,99.99
2016-06-02T01:05:32.007Z,99.99
2016-06-02T01:06:31.994Z,99.99
2016-06-02T01:07:31.981Z,99.99
2016-06-02T01:08:31.952Z,99.99
2016-06-02T01:09:31.940Z,99.99
2016-06-02T01:10:31.926Z,99.99
2016-06-02T01:11:31.914Z,99.99
2016-06-02T01:12:31.885Z,99.99
2016-06-02T01:13:31.873Z,99.99
2016-06-02T01:14:31.860Z,99.99
2016-06-02T01:15:31.831Z,99.99
2016-06-02T01:16:31.818Z,99.99
2016-06-02T01:17:31.806Z,99.99
2016-06-02T01:18:31.776Z,99.99
2016-06-02T01:19:31.764Z,99.99
2016-06-02T01:20:31.751Z,99.99
2016-06-02T01:21:31.735Z,99.99
2016-06-02T01:22:31.706Z,99.99
2016-06-02T01:23:31.694Z,99.99
2016-06-02T01:24:31.681Z,99.99
2016-06-02T01:25:32.170Z,99.99
2016-06-02T01:26:31.639Z,99.99
2016-06-02T01:27:31.626Z,99.99
2016-06-02T01:28:31.598Z,99.99
2016-06-02T01:29:31.585Z,99.99
2016-06-02T01:30:31.572Z,99.99
2016-06-02T01:31:31.559Z,99.99
2016-06-02T01:32:31.530Z,99.99
2016-06-02T01:33:31.517Z,99.99
2016-06-02T01:34:31.505Z,99.99
2016-06-02T01:35:31.476Z,99.99
2016-06-02T01:36:31.463Z,99.99
2016-06-02T01:37:31.450Z,99.99
2016-06-02T01:38:31.421Z,99.99
2016-06-02T01:39:31.408Z,99.99
2016-06-02T01:40:31.396Z,99.99
2016-06-02T01:41:31.383Z,99.99
2016-06-02T01:42:31.354Z,99.99
2016-06-02T01:43:31.341Z,99.99
2016-06-02T01:44:31.329Z,99.99
2016-06-02T01:45:31.315Z,99.99
2016-06-02T01:46:31.287Z,99.99
2016-06-02T01:47:31.273Z,99.99
2016-06-02T01:48:31.261Z,99.99
2016-06-02T01:49:31.232Z,99.99
2016-06-02T01:50:31.266Z,99.99
2016-06-02T01:51:31.206Z,99.99
2016-06-02T01:52:31.193Z,99.99
2016-06-02T01:53:31.165Z,99.99
2016-06-02T01:54:31.152Z,99.99
2016-06-02T01:55:31.389Z,99.99
2016-06-02T01:56:31.110Z,99.99
2016-06-02T01:57:31.098Z,99.99
2016-06-02T01:58:31.083Z,99.99
2016-06-02T01:59:31.072Z,99.99
2016-06-02T02:00:31.043Z,99.99
2016-06-02T02:01:31.030Z,99.99
2016-06-02T02:02:31.063Z,99.99
2016-06-02T02:03:30.988Z,99.99
2016-06-02T02:04:30.975Z,99.99
2016-06-02T02:05:30.963Z,99.99
2016-06-02T02:06:30.934Z,99.99
2016-06-02T02:07:30.921Z,99.99
2016-06-02T02:08:30.907Z,99.99
2016-06-02T02:09:30.896Z,99.99
2016-06-02T02:10:30.867Z,99.99
2016-06-02T02:11:30.854Z,99.99
2016-06-02T02:12:30.841Z,99.99
2016-06-02T02:13:30.813Z,99.99
2016-06-02T02:14:30.799Z,99.99
2016-06-02T02:15:30.801Z,99.99
2016-06-02T02:16:30.773Z,99.99
2016-06-02T02:17:30.745Z,99.99
2016-06-02T02:18:30.732Z,99.99
2016-06-02T02:19:30.719Z,99.99
2016-06-02T02:20:30.706Z,99.99
2016-06-02T02:21:30.677Z,99.99
2016-06-02T02:22:30.665Z,99.99
2016-06-02T02:23:30.636Z,99.99
2016-06-02T02:24:30.623Z,99.99
2016-06-02T02:25:30.828Z,99.99
2016-06-02T02:26:30.598Z,99.99
2016-06-02T02:27:30.568Z,99.99
2016-06-02T02:28:30.555Z,99.99
2016-06-02T02:29:30.543Z,99.99
2016-06-02T02:30:30.514Z,99.99
2016-06-02T02:31:30.501Z,99.99
2016-06-02T02:32:30.488Z,99.99
2016-06-02T02:33:30.475Z,99.99
2016-06-02T02:34:30.447Z,99.99
2016-06-02T02:35:30.433Z,99.99
2016-06-02T02:36:30.421Z,99.99
2016-06-02T02:37:30.393Z,99.99
2016-06-02T02:38:30.380Z,99.99
2016-06-02T02:39:30.366Z,99.99
2016-06-02T02:40:31.150Z,99.99
2016-06-02T02:41:30.325Z,99.99
2016-06-02T02:42:30.312Z,99.99
2016-06-02T02:43:30.299Z,99.99
2016-06-02T02:44:30.270Z,99.99
2016-06-02T02:45:30.257Z,99.99
2016-06-02T02:46:30.245Z,99.99
2016-06-02T02:47:30.231Z,99.99
2016-06-02T02:48:30.204Z,99.99
2016-06-02T02:49:30.190Z,99.99
2016-06-02T02:50:30.177Z,99.99
2016-06-02T02:51:30.165Z,99.99
2016-06-02T02:52:30.136Z,99.99
2016-06-02T02:53:30.123Z,99.99
2016-06-02T02:54:30.109Z,99.99
2016-06-02T02:55:30.081Z,99.99
2016-06-02T02:56:30.069Z,99.99
2016-06-02T02:57:30.056Z,99.99
2016-06-02T02:58:30.027Z,99.99
2016-06-02T02:59:30.014Z,99.99
2016-06-02T03:00:30.001Z,99.99
2016-06-02T03:01:29.988Z,99.99
2016-06-02T03:02:29.960Z,99.99
2016-06-02T03:03:29.947Z,99.99
2016-06-02T03:04:29.934Z,99.99
2016-06-02T03:05:29.905Z,99.99
2016-06-02T03:06:29.907Z,99.99
2016-06-02T03:07:29.879Z,99.99
2016-06-02T03:08:29.851Z,99.99
2016-06-02T03:09:29.838Z,99.99
2016-06-02T03:10:30.060Z,99.99
2016-06-02T03:11:29.812Z,99.99
2016-06-02T03:12:29.783Z,99.99
2016-06-02T03:13:29.771Z,99.99
2016-06-02T03:14:29.758Z,99.99
2016-06-02T03:15:29.729Z,99.99
2016-06-02T03:16:29.716Z,99.99
2016-06-02T03:17:29.703Z,99.99
2016-06-02T03:18:29.674Z,99.99
2016-06-02T03:19:29.661Z,99.99
2016-06-02T03:20:29.648Z,99.99
2016-06-02T03:21:29.620Z,99.99
2016-06-02T03:22:29.607Z,99.99
2016-06-02T03:23:29.594Z,99.99
2016-06-02T03:24:29.565Z,99.99
2016-06-02T03:25:29.553Z,99.99
2016-06-02T03:26:29.539Z,99.99
2016-06-02T03:27:29.527Z,99.99
2016-06-02T03:28:29.498Z,99.99
2016-06-02T03:29:29.510Z,99.99
2016-06-02T03:30:29.522Z,99.99
2016-06-02T03:31:29.519Z,99.99
2016-06-02T03:32:29.531Z,99.99
2016-06-02T03:33:29.544Z,99.99
2016-06-02T03:34:29.524Z,99.99
2016-06-02T03:35:29.522Z,99.99
2016-06-02T03:36:29.518Z,99.99
2016-06-02T03:37:29.498Z,99.99
2016-06-02T03:38:29.494Z,99.99
2016-06-02T03:39:29.486Z,99.99
2016-06-02T03:40:29.631Z,99.99
2016-06-02T03:41:29.450Z,99.99
2016-06-02T03:42:29.440Z,99.99
2016-06-02T03:43:29.414Z,99.99
2016-06-02T03:44:29.402Z,99.99
2016-06-02T03:45:29.391Z,99.99
2016-06-02T03:46:29.363Z,99.99
2016-06-02T03:47:29.366Z,99.99
2016-06-02T03:48:29.340Z,99.99
2016-06-02T03:49:29.327Z,99.99
2016-06-02T03:50:29.299Z,99.99
2016-06-02T03:51:29.287Z,99.99
2016-06-02T03:52:29.274Z,99.99
2016-06-02T03:53:29.246Z,99.99
2016-06-02T03:54:29.717Z,99.99
2016-06-02T03:55:29.236Z,99.99
2016-06-02T03:56:29.192Z,99.99
2016-06-02T03:57:29.181Z,99.99
2016-06-02T03:58:29.168Z,99.99
2016-06-02T03:59:29.139Z,99.99
2016-06-02T04:00:29.126Z,99.99
2016-06-02T04:01:29.097Z,99.99
2016-06-02T04:02:29.085Z,99.99
2016-06-02T04:03:29.072Z,99.99
2016-06-02T04:04:29.059Z,99.99
2016-06-02T04:05:29.030Z,99.99
2016-06-02T04:06:29.017Z,99.99
2016-06-02T04:07:28.989Z,99.99
2016-06-02T04:08:28.976Z,99.99
2016-06-02T04:09:28.963Z,99.99
2016-06-02T04:10:28.950Z,99.99
2016-06-02T04:11:28.921Z,99.99
2016-06-02T04:12:28.908Z,99.99
2016-06-02T04:13:28.894Z,99.99
2016-06-02T04:14:28.866Z,99.99
2016-06-02T04:15:28.854Z,99.99
2016-06-02T04:16:28.841Z,99.99
2016-06-02T04:17:28.812Z,99.99
2016-06-02T04:18:28.799Z,99.99
2016-06-02T04:19:28.786Z,99.99
2016-06-02T04:20:28.773Z,99.99
2016-06-02T04:21:28.745Z,99.99
2016-06-02T04:22:28.732Z,99.99
2016-06-02T04:23:28.704Z,99.99
2016-06-02T04:24:28.690Z,99.99
2016-06-02T04:25:28.677Z,99.99
2016-06-02T04:26:28.649Z,99.99
2016-06-02T04:27:28.636Z,99.99
2016-06-02T04:28:28.623Z,99.99
2016-06-02T04:29:28.610Z,99.99
2016-06-02T04:30:28.582Z,99.99
2016-06-02T04:31:28.569Z,99.99
2016-06-02T04:32:28.556Z,99.99
2016-06-02T04:33:28.527Z,99.99
2016-06-02T04:34:28.514Z,99.99
2016-06-02T04:35:28.501Z,99.99
2016-06-02T04:36:28.472Z,99.99
2016-06-02T04:37:28.459Z,99.99
2016-06-02T04:38:28.447Z,99.99
2016-06-02T04:39:28.419Z,99.99
2016-06-02T04:40:28.405Z,99.99
2016-06-02T04:41:28.392Z,99.99
2016-06-02T04:42:28.364Z,99.99
2016-06-02T04:43:28.351Z,99.99
2016-06-02T04:44:28.322Z,99.99
2016-06-02T04:45:28.310Z,99.99
2016-06-02T04:46:28.296Z,99.99
2016-06-02T04:47:28.284Z,99.99
2016-06-02T04:48:28.255Z,99.99
2016-06-02T04:49:28.242Z,99.99
2016-06-02T04:50:28.229Z,99.99
2016-06-02T04:51:28.201Z,99.99
2016-06-02T04:52:28.187Z,99.99
2016-06-02T04:53:28.174Z,99.99
2016-06-02T04:54:28.146Z,99.99
2016-06-02T04:55:28.758Z,99.99
2016-06-02T04:56:28.120Z,99.99
2016-06-02T04:57:28.092Z,99.99
2016-06-02T04:58:28.095Z,99.99
2016-06-02T04:59:28.065Z,99.99
2016-06-02T05:00:28.037Z,99.99
2016-06-02T05:01:28.024Z,99.99
2016-06-02T05:02:28.012Z,99.99
2016-06-02T05:03:27.984Z,99.99
2016-06-02T05:04:27.970Z,99.99
2016-06-02T05:05:27.957Z,99.99
2016-06-02T05:06:27.928Z,99.99
2016-06-02T05:07:27.915Z,99.99
2016-06-02T05:08:27.902Z,99.99
2016-06-02T05:09:27.874Z,99.99
2016-06-02T05:10:27.861Z,99.99
2016-06-02T05:11:27.848Z,99.99
2016-06-02T05:12:27.819Z,99.99
2016-06-02T05:13:27.806Z,99.99
2016-06-02T05:14:27.794Z,99.99
2016-06-02T05:15:27.781Z,99.99
2016-06-02T05:16:27.752Z,99.99
2016-06-02T05:17:27.739Z,99.99
2016-06-02T05:18:27.726Z,99.99
2016-06-02T05:19:27.698Z,99.99
2016-06-02T05:20:27.685Z,99.99
2016-06-02T05:21:27.671Z,99.99
2016-06-02T05:22:27.644Z,99.99
2016-06-02T05:23:27.630Z,99.99
2016-06-02T05:24:30.368Z,99.99
2016-06-02T05:25:28.182Z,99.99
2016-06-02T05:26:27.576Z,99.99
2016-06-02T05:27:27.641Z,99.99
2016-06-02T05:28:27.535Z,99.99
2016-06-02T05:29:27.631Z,99.99
2016-06-02T05:30:27.509Z,99.99
2016-06-02T05:31:27.496Z,99.99
2016-06-02T05:32:27.467Z,99.99
2016-06-02T05:33:27.454Z,99.99
2016-06-02T05:34:27.442Z,99.99
2016-06-02T05:35:27.413Z,99.99
2016-06-02T05:36:27.400Z,99.99
2016-06-02T05:37:27.387Z,99.99
2016-06-02T05:38:27.374Z,99.99
2016-06-02T05:39:27.361Z,99.99
2016-06-02T05:40:27.333Z,99.99
2016-06-02T05:41:27.320Z,99.99
2016-06-02T05:42:27.306Z,99.99
2016-06-02T05:43:27.278Z,99.99
2016-06-02T05:44:27.264Z,99.99
2016-06-02T05:45:27.252Z,99.99
2016-06-02T05:46:27.238Z,99.99
2016-06-02T05:47:27.227Z,99.99
2016-06-02T05:48:27.197Z,99.99
2016-06-02T05:49:27.185Z,99.99
2016-06-02T05:50:27.172Z,99.99
2016-06-02T05:51:27.158Z,99.99
2016-06-02T05:52:27.146Z,99.99
2016-06-02T05:53:27.117Z,99.99
2016-06-02T05:54:27.105Z,99.99
2016-06-02T05:55:27.091Z,99.98
2016-06-02T05:56:27.079Z,99.99
2016-06-02T05:57:27.065Z,99.99
2016-06-02T05:58:27.037Z,99.99
2016-06-02T05:59:27.024Z,99.99
2016-06-02T06:00:27.012Z,99.99
2016-06-02T06:01:26.998Z,99.99
2016-06-02T06:02:26.985Z,99.99
2016-06-02T06:03:26.973Z,99.99
2016-06-02T06:04:26.943Z,99.99
2016-06-02T06:05:26.931Z,99.93
2016-06-02T06:06:26.917Z,99.99
2016-06-02T06:07:26.906Z,99.99
2016-06-02T06:08:26.954Z,99.99
2016-06-02T06:09:26.879Z,99.78
2016-06-02T06:10:26.851Z,99.88
2016-06-02T06:11:26.837Z,99.59
2016-06-02T06:12:26.825Z,99.35
2016-06-02T06:13:26.812Z,99.64
2016-06-02T06:14:26.799Z,99.49
2016-06-02T06:15:26.786Z,99.64
2016-06-02T06:16:26.773Z,99.49
2016-06-02T06:17:26.760Z,99.99
2016-06-02T06:18:26.731Z,99.99
2016-06-02T06:19:26.719Z,99.78
2016-06-02T06:20:26.706Z,99.78
2016-06-02T06:21:26.694Z,99.88
2016-06-02T06:22:26.679Z,99.3
2016-06-02T06:23:26.667Z,99.11
2016-06-02T06:24:26.655Z,99.01
2016-06-02T06:25:26.641Z,98.82
2016-06-02T06:26:26.628Z,98.82
2016-06-02T06:27:26.616Z,98.82
2016-06-02T06:28:26.602Z,98.72
2016-06-02T06:29:26.590Z,99.11
2016-06-02T06:30:26.577Z,98.92
2016-06-02T06:31:26.563Z,98.77
2016-06-02T06:32:26.551Z,98.68
2016-06-02T06:33:26.538Z,98.39
2016-06-02T06:34:26.524Z,98.97
2016-06-02T06:35:26.512Z,98.39
2016-06-02T06:36:26.499Z,98.29
2016-06-02T06:37:26.487Z,97.86
2016-06-02T06:38:26.473Z,97.28
2016-06-02T06:39:26.460Z,97.09
2016-06-02T06:40:27.165Z,97.28
2016-06-02T06:41:26.434Z,97.28
2016-06-02T06:42:26.421Z,96.94
2016-06-02T06:43:26.408Z,96.75
2016-06-02T06:44:26.395Z,97.14
2016-06-02T06:45:26.428Z,96.85
2016-06-02T06:46:26.370Z,97.04
2016-06-02T06:47:26.356Z,96.94
2016-06-02T06:48:26.344Z,96.75
2016-06-02T06:49:26.330Z,96.8
2016-06-02T06:50:26.333Z,96.89
2016-06-02T06:51:26.320Z,96.41
2016-06-02T06:52:26.307Z,96.61
2016-06-02T06:53:26.325Z,96.75
2016-06-02T06:54:26.282Z,96.56
2016-06-02T06:55:26.472Z,96.08
2016-06-02T06:56:26.255Z,95.88
2016-06-02T06:57:26.243Z,95.88
2016-06-02T06:58:26.229Z,95.5
2016-06-02T06:59:26.232Z,94.87
2016-06-02T07:00:26.219Z,94.2
2016-06-02T07:01:26.254Z,94.29
2016-06-02T07:02:26.193Z,93.9
2016-06-02T07:03:26.181Z,94.29
2016-06-02T07:04:26.168Z,93.9
2016-06-02T07:05:26.170Z,94.29
2016-06-02T07:06:26.157Z,93.9
2016-06-02T07:07:26.144Z,94.1
2016-06-02T07:08:26.131Z,93.8
2016-06-02T07:09:26.118Z,94.1
2016-06-02T07:10:26.106Z,93.9
2016-06-02T07:11:26.108Z,94.1
2016-06-02T07:12:26.096Z,93.8
2016-06-02T07:13:26.083Z,94.1
2016-06-02T07:14:26.069Z,93.9
2016-06-02T07:15:26.057Z,93.95
2016-06-02T07:16:26.059Z,94.14
2016-06-02T07:17:26.047Z,94.43
2016-06-02T07:18:26.081Z,94.38
2016-06-02T07:19:26.053Z,94.77
2016-06-02T07:20:26.022Z,94.29
2016-06-02T07:21:25.995Z,94.19
2016-06-02T07:22:25.998Z,94.19
2016-06-02T07:23:25.985Z,94.14
2016-06-02T07:24:25.972Z,94.24
2016-06-02T07:25:25.959Z,94.43
2016-06-02T07:26:25.946Z,93.95
2016-06-02T07:27:25.949Z,93.56
2016-06-02T07:28:25.936Z,93.75
2016-06-02T07:29:25.922Z,93.6
2016-06-02T07:30:25.910Z,93.41
2016-06-02T07:31:25.913Z,93.12
2016-06-02T07:32:25.899Z,93.02
2016-06-02T07:33:25.887Z,92.83
2016-06-02T07:34:25.890Z,92.97
2016-06-02T07:35:25.877Z,92.97
2016-06-02T07:36:25.863Z,93.07
2016-06-02T07:37:25.851Z,93.07
2016-06-02T07:38:25.853Z,92.93
2016-06-02T07:39:25.840Z,92.93
2016-06-02T07:40:25.827Z,92.83
2016-06-02T07:41:25.830Z,93.16
2016-06-02T07:42:25.817Z,92.29
2016-06-02T07:43:25.804Z,91.95
2016-06-02T07:44:25.806Z,92.05
2016-06-02T07:45:25.794Z,92.43
2016-06-02T07:46:25.797Z,92.24
2016-06-02T07:47:25.784Z,91.99
2016-06-02T07:48:25.771Z,91.89
2016-06-02T07:49:25.773Z,91.71
2016-06-02T07:50:25.761Z,91.65
2016-06-02T07:51:25.747Z,90.78
2016-06-02T07:52:25.750Z,90.39
2016-06-02T07:53:25.753Z,90.06
2016-06-02T07:54:25.740Z,89.67
2016-06-02T07:55:25.742Z,89.28
2016-06-02T07:56:25.730Z,88.89
2016-06-02T07:57:25.716Z,88.7
2016-06-02T07:58:25.860Z,88.51
2016-06-02T07:59:25.738Z,88.37
2016-06-02T08:00:25.694Z,88.37
2016-06-02T08:01:25.681Z,88.46
2016-06-02T08:02:25.683Z,88.46
2016-06-02T08:03:25.779Z,88.46
2016-06-02T08:04:25.704Z,88.46
2016-06-02T08:05:25.644Z,88.95
2016-06-02T08:06:25.646Z,88.17
2016-06-02T08:07:25.635Z,88.56
2016-06-02T08:08:25.621Z,88.61
2016-06-02T08:09:25.608Z,89
2016-06-02T08:10:25.612Z,89.77
2016-06-02T08:11:25.598Z,89.97
2016-06-02T08:12:25.584Z,90.01
2016-06-02T08:13:25.588Z,90.2
2016-06-02T08:14:25.575Z,89.82
2016-06-02T08:15:25.561Z,89.47
2016-06-02T08:16:25.548Z,89.96
2016-06-02T08:17:25.551Z,90.34
2016-06-02T08:18:25.539Z,90.64
2016-06-02T08:19:25.525Z,90.34
2016-06-02T08:20:25.529Z,90.06
2016-06-02T08:21:25.516Z,89.96
2016-06-02T08:22:25.503Z,89.57
2016-06-02T08:23:25.505Z,89.57
2016-06-02T08:24:25.492Z,89.96
2016-06-02T08:25:25.730Z,89.76
2016-06-02T08:26:25.483Z,89.28
2016-06-02T08:27:25.469Z,89.09
2016-06-02T08:28:25.472Z,88.89
2016-06-02T08:29:25.458Z,88.79
2016-06-02T08:30:25.446Z,88.79
2016-06-02T08:31:25.433Z,88.95
2016-06-02T08:32:25.436Z,88.89
2016-06-02T08:33:25.423Z,89.23
2016-06-02T08:34:25.410Z,89.76
2016-06-02T08:35:25.397Z,89.67
2016-06-02T08:36:25.400Z,89.86
2016-06-02T08:37:25.387Z,90.06
2016-06-02T08:38:25.373Z,89.67
2016-06-02T08:39:25.360Z,89.47
2016-06-02T08:40:25.363Z,89.86
2016-06-02T08:41:25.350Z,90.01
2016-06-02T08:42:25.337Z,89.43
2016-06-02T08:43:25.340Z,88.95
2016-06-02T08:44:25.327Z,89.43
2016-06-02T08:45:25.314Z,89.68
2016-06-02T08:46:25.301Z,89.77
2016-06-02T08:47:25.304Z,90.5
2016-06-02T08:48:25.291Z,90.3
2016-06-02T08:49:25.278Z,90.5
2016-06-02T08:50:25.281Z,90.54
2016-06-02T08:51:25.267Z,90.54
2016-06-02T08:52:25.256Z,90.64
2016-06-02T08:53:25.289Z,90.73
2016-06-02T08:54:25.245Z,90.64
2016-06-02T08:55:25.247Z,90.64
2016-06-02T08:56:25.219Z,90.54
2016-06-02T08:57:25.221Z,90.06
2016-06-02T08:58:25.208Z,90.06
2016-06-02T08:59:25.196Z,90.64
2016-06-02T09:00:25.199Z,90.34
2016-06-02T09:01:25.186Z,89.32
2016-06-02T09:02:25.172Z,89.09
2016-06-02T09:03:25.175Z,89.28
2016-06-02T09:04:25.162Z,89.67
2016-06-02T09:05:25.150Z,89.86
2016-06-02T09:06:25.137Z,89.47
2016-06-02T09:07:25.140Z,89.76
2016-06-02T09:08:25.127Z,89.52
2016-06-02T09:09:25.113Z,89.71
2016-06-02T09:10:25.116Z,89.71
2016-06-02T09:11:25.104Z,89.81
2016-06-02T09:12:25.090Z,89.9
2016-06-02T09:13:25.092Z,89.9
2016-06-02T09:14:25.079Z,89.9
2016-06-02T09:15:25.068Z,89.23
2016-06-02T09:16:25.070Z,89.81
2016-06-02T09:17:25.057Z,88.93
2016-06-02T09:18:25.044Z,89.23
2016-06-02T09:19:25.047Z,89.32
2016-06-02T09:20:25.034Z,88.45
2016-06-02T09:21:25.020Z,88.31
2016-06-02T09:22:25.009Z,88.6
2016-06-02T09:23:25.011Z,88.6
2016-06-02T09:24:25.014Z,88.7
2016-06-02T09:25:25.000Z,88.7
2016-06-02T09:26:24.986Z,88.6
2016-06-02T09:27:24.975Z,88.99
2016-06-02T09:28:24.962Z,88.84
2016-06-02T09:29:24.949Z,88.84
2016-06-02T09:30:24.952Z,89.03
2016-06-02T09:31:24.938Z,89.52
2016-06-02T09:32:24.941Z,88.55
2016-06-02T09:33:24.928Z,88.65
2016-06-02T09:34:24.915Z,89.23
2016-06-02T09:35:24.918Z,89.42
2016-06-02T09:36:24.905Z,89.18
2016-06-02T09:37:24.892Z,89.32
2016-06-02T09:38:24.894Z,89.23
2016-06-02T09:39:24.882Z,89.23
2016-06-02T09:40:24.868Z,88.93
2016-06-02T09:41:24.872Z,88.65
2016-06-02T09:42:24.874Z,87.63
2016-06-02T09:43:24.846Z,87.92
2016-06-02T09:44:24.848Z,87.63
2016-06-02T09:45:24.835Z,87.98
2016-06-02T09:46:24.822Z,88.65
2016-06-02T09:47:24.826Z,88.46
2016-06-02T09:48:24.812Z,87.59
2016-06-02T09:49:24.799Z,88.37
2016-06-02T09:50:25.396Z,88.42
2016-06-02T09:51:24.773Z,88.9
2016-06-02T09:52:24.776Z,88.71
2016-06-02T09:53:24.763Z,89.29
2016-06-02T09:54:24.767Z,89.77
2016-06-02T09:55:24.769Z,89.19
2016-06-02T09:56:24.740Z,89.77
2016-06-02T09:57:24.727Z,89.39
2016-06-02T09:58:24.730Z,89.77
2016-06-02T09:59:24.717Z,90.36
2016-06-02T10:00:24.704Z,90.26
2016-06-02T10:01:24.691Z,90.64
2016-06-02T10:02:24.678Z,90.4
2016-06-02T10:03:24.666Z,90.69
2016-06-02T10:04:24.668Z,90.4
2016-06-02T10:05:24.655Z,90.4
2016-06-02T10:06:24.642Z,90.69
2016-06-02T10:07:24.644Z,90.4
2016-06-02T10:08:24.632Z,90.5
2016-06-02T10:09:24.618Z,90.59
2016-06-02T10:10:24.606Z,90.2
2016-06-02T10:11:24.608Z,89.82
2016-06-02T10:12:24.595Z,89.82
2016-06-02T10:13:24.582Z,90.01
2016-06-02T10:14:24.585Z,89.04
2016-06-02T10:15:24.573Z,89.23
2016-06-02T10:16:24.559Z,89.72
2016-06-02T10:17:24.562Z,89.82
2016-06-02T10:18:24.548Z,90.5
2016-06-02T10:19:24.599Z,90.64
2016-06-02T10:20:24.523Z,90.64
2016-06-02T10:21:24.526Z,90.44
2016-06-02T10:22:24.513Z,90.44
2016-06-02T10:23:24.501Z,90.25
2016-06-02T10:24:24.503Z,89.37
2016-06-02T10:25:25.115Z,88.51
2016-06-02T10:26:24.477Z,89.23
2016-06-02T10:27:24.465Z,89.14
2016-06-02T10:28:24.591Z,88.75
2016-06-02T10:29:24.454Z,88.61
2016-06-02T10:30:24.503Z,88.32
2016-06-02T10:31:24.444Z,88.67
2016-06-02T10:32:24.430Z,88.85
2016-06-02T10:33:24.417Z,89.73
2016-06-02T10:34:24.405Z,90.6
2016-06-02T10:35:24.392Z,90.41
2016-06-02T10:36:24.379Z,90.36
2016-06-02T10:37:24.382Z,91.32
2016-06-02T10:38:24.369Z,91.13
2016-06-02T10:39:24.371Z,90.74
2016-06-02T10:40:25.358Z,91.13
2016-06-02T10:41:24.329Z,91.61
2016-06-02T10:42:24.332Z,91.71
2016-06-02T10:43:24.319Z,91.42
2016-06-02T10:44:24.307Z,91.71
2016-06-02T10:45:24.293Z,90.94
2016-06-02T10:46:24.296Z,91.03
2016-06-02T10:47:24.284Z,91.13
2016-06-02T10:48:24.271Z,92
2016-06-02T10:49:24.257Z,91.52
2016-06-02T10:50:24.245Z,91.27
2016-06-02T10:51:24.232Z,91.95
2016-06-02T10:52:24.235Z,91.47
2016-06-02T10:53:24.221Z,90.88
2016-06-02T10:54:24.209Z,90.01
2016-06-02T10:55:24.851Z,90.11
2016-06-02T10:56:24.198Z,90.64
2016-06-02T10:57:24.185Z,90.59
2016-06-02T10:58:24.173Z,90.5
2016-06-02T10:59:24.175Z,90.59
2016-06-02T11:00:24.162Z,90.59
2016-06-02T11:01:24.149Z,91.56
2016-06-02T11:02:24.152Z,91.95
2016-06-02T11:03:24.139Z,90.93
2016-06-02T11:04:24.126Z,90.16
2016-06-02T11:05:24.128Z,90.88
2016-06-02T11:06:24.116Z,90.44
2016-06-02T11:07:24.103Z,90.1
2016-06-02T11:08:24.091Z,90.64
2016-06-02T11:09:24.077Z,90.06
2016-06-02T11:10:24.079Z,90.44
2016-06-02T11:11:24.066Z,90.25
2016-06-02T11:12:24.054Z,90.54
2016-06-02T11:13:24.040Z,89.23
2016-06-02T11:14:24.044Z,88.79
2016-06-02T11:15:24.030Z,89.28
2016-06-02T11:16:24.018Z,89.86
2016-06-02T11:17:24.005Z,90.11
2016-06-02T11:18:24.008Z,89.76
2016-06-02T11:19:23.995Z,88.99
2016-06-02T11:20:23.981Z,89.82
2016-06-02T11:21:23.968Z,89.82
2016-06-02T11:22:23.971Z,89.04
2016-06-02T11:23:23.959Z,89.23
2016-06-02T11:24:23.945Z,89.62
2016-06-02T11:25:23.932Z,89.23
2016-06-02T11:26:23.934Z,89.43
2016-06-02T11:27:23.969Z,89.14
2016-06-02T11:28:23.909Z,88.7
2016-06-02T11:29:23.912Z,88.95
2016-06-02T11:30:23.900Z,89.23
2016-06-02T11:31:23.886Z,90.01
2016-06-02T11:32:23.888Z,89.28
2016-06-02T11:33:23.861Z,89.28
2016-06-02T11:34:23.863Z,89.18
2016-06-02T11:35:23.850Z,89.23
2016-06-02T11:36:23.853Z,89.28
2016-06-02T11:37:23.839Z,89.32
2016-06-02T11:38:23.827Z,90.1
2016-06-02T11:39:23.830Z,90.1
2016-06-02T11:40:24.285Z,90.1
2016-06-02T11:41:23.804Z,90.14
2016-06-02T11:42:23.791Z,88.1
2016-06-02T11:43:23.794Z,88.01
2016-06-02T11:44:23.780Z,86.99
2016-06-02T11:45:23.783Z,87.09
2016-06-02T11:46:23.771Z,85.54
2016-06-02T11:47:23.757Z,84.43
2016-06-02T11:48:23.760Z,85.94
2016-06-02T11:49:23.746Z,87.49
2016-06-02T11:50:23.734Z,87.92
2016-06-02T11:51:23.721Z,88.51
2016-06-02T11:52:23.724Z,88.93
2016-06-02T11:53:23.712Z,89.17
2016-06-02T11:54:23.698Z,88.93
2016-06-02T11:55:23.717Z,88.39
2016-06-02T11:56:23.688Z,88.97
2016-06-02T11:57:23.690Z,88.58
2016-06-02T11:58:23.678Z,88
2016-06-02T11:59:23.664Z,88.04
2016-06-02T12:00:23.668Z,86.58
2016-06-02T12:01:23.654Z,86.58
2016-06-02T12:02:23.657Z,86.39
2016-06-02T12:03:23.644Z,86.43
2016-06-02T12:04:23.647Z,85.11
2016-06-02T12:05:23.649Z,84.38
2016-06-02T12:06:23.636Z,85.16
2016-06-02T12:07:23.639Z,85.06
2016-06-02T12:08:23.642Z,84.86
2016-06-02T12:09:23.630Z,84.81
2016-06-02T12:10:23.616Z,85.16
2016-06-02T12:11:23.618Z,85.25
2016-06-02T12:12:23.606Z,83.89
2016-06-02T12:13:23.608Z,84.38
2016-06-02T12:14:23.611Z,83.89
2016-06-02T12:15:23.599Z,84.22
2016-06-02T12:16:23.601Z,83.54
2016-06-02T12:17:23.604Z,83.68
2016-06-02T12:18:23.590Z,82.84
2016-06-02T12:19:23.593Z,82.84
2016-06-02T12:20:23.596Z,82.4
2016-06-02T12:21:23.583Z,82.63
2016-06-02T12:22:23.585Z,82.63
2016-06-02T12:23:23.588Z,82.34
2016-06-02T12:24:23.576Z,81.56
2016-06-02T12:25:23.579Z,82.04
2016-06-02T12:26:23.581Z,82.14
2016-06-02T12:27:23.568Z,82.04
2016-06-02T12:28:23.571Z,81.75
2016-06-02T12:29:23.573Z,81.11
2016-06-02T12:30:23.561Z,79.35
2016-06-02T12:31:23.563Z,79.8
2016-06-02T12:32:23.567Z,79.51
2016-06-02T12:33:23.569Z,78.4
2016-06-02T12:34:23.565Z,80.15
2016-06-02T12:35:23.596Z,79.72
2016-06-02T12:36:23.610Z,80.8
2016-06-02T12:37:23.640Z,81.05
2016-06-02T12:38:23.656Z,81.63
2016-06-02T12:39:23.680Z,81.34
2016-06-02T12:40:23.676Z,80.95
2016-06-02T12:41:23.689Z,80.95
2016-06-02T12:42:23.702Z,80.76
2016-06-02T12:43:23.699Z,80.76
2016-06-02T12:44:23.694Z,81.38
2016-06-02T12:45:23.700Z,80.9
2016-06-02T12:46:23.707Z,81.13
2016-06-02T12:47:23.696Z,80.54
2016-06-02T12:48:23.702Z,80.74
2016-06-02T12:49:23.708Z,79.57
2016-06-02T12:50:23.712Z,79.76
2016-06-02T12:51:23.700Z,80.44
2016-06-02T12:52:23.750Z,80.35
2016-06-02T12:53:23.692Z,79.96
2016-06-02T12:54:23.696Z,80.51